Terminal Aerodrome Forecast
Issued by NWS

Home | Current Version | Previous Version | Text Only | Print | Product List | Glossary On
Versions: 1 2 3 4 5 6 7 8 9 10 11 12 13 14 15 16 17 18 19 20 21 22 23 24
000
FTUS43 KLSX 250500
TAFUIN
TAF
KUIN 250530Z 2506/2606 21005KT P6SM BKN120
     FM250900 23006KT P6SM -RA OVC040
     FM251100 25010KT 3SM -RA BR OVC012
     FM251400 36014KT 2SM -RA BR OVC006
     FM251900 01017G27KT 3SM -RASN BR OVC006
     FM260100 35012KT P6SM OVC012=

USA.gov is the U.S. government's official web portal to all federal, state and local government web resources and services.